Time;durP1;ratioP1;P1;durP2;ratioP2;P2;SDS_P1;SDS_P2;PMS_P1;PMS_P2;Temp;Humidity;BMP_temperature;BMP_pressure;BME280_temperature;BME280_humidity;BME280_pressure;Samples;Min_cycle;Max_cycle;Signal;HPM_P1;HPM_P2
2023/04/24 00:02:20;;;;;;;1.47;1.13;;;;;;;10.91;100.00;154161.06;4971839;28;20459;-86
2023/04/24 00:04:48;;;;;;;1.77;1.03;;;;;;;10.89;100.00;154155.88;4989009;28;20515;-87
2023/04/24 00:07:16;;;;;;;1.37;1.10;;;;;;;10.86;100.00;154149.41;5004695;28;20471;-86
2023/04/24 00:09:43;;;;;;;1.80;1.00;;;;;;;10.82;100.00;154137.78;4988236;28;20979;-86
2023/04/24 00:12:10;;;;;;;3.53;1.50;;;;;;;10.80;100.00;154133.84;4999674;28;20470;-86
2023/04/24 00:14:36;;;;;;;2.10;1.10;;;;;;;10.82;100.00;154139.06;5000737;28;20468;-86
2023/04/24 00:17:03;;;;;;;1.50;1.07;;;;;;;10.80;100.00;154132.59;4996974;28;20459;-86
2023/04/24 00:19:30;;;;;;;1.50;1.20;;;;;;;10.84;100.00;154142.94;4987294;28;20543;-86
2023/04/24 00:21:57;;;;;;;2.83;1.60;;;;;;;10.77;100.00;154126.13;4988544;28;21008;-86
2023/04/24 00:24:24;;;;;;;1.97;1.17;;;;;;;10.79;100.00;154131.28;4979055;28;20468;-86
2023/04/24 00:26:51;;;;;;;1.90;1.00;;;;;;;10.79;100.00;154131.28;4986560;28;20467;-86
2023/04/24 00:29:17;;;;;;;1.40;1.10;;;;;;;10.76;100.00;154123.53;4987856;28;20512;-86
2023/04/24 00:31:44;;;;;;;2.13;1.40;;;;;;;10.78;100.00;154127.38;4998759;28;20452;-86
2023/04/24 00:34:11;;;;;;;1.57;1.20;;;;;;;10.81;100.00;154135.16;4987366;28;20489;-86
2023/04/24 00:36:38;;;;;;;2.70;1.10;;;;;;;10.79;100.00;154131.28;5001616;28;20458;-86
2023/04/24 00:39:08;;;;;;;3.80;1.10;;;;;;;10.80;100.00;154132.59;4998783;28;20467;-86
2023/04/24 00:41:35;;;;;;;2.10;1.03;;;;;;;10.78;100.00;154127.38;4977489;28;20566;-86
2023/04/24 00:44:02;;;;;;;2.10;1.23;;;;;;;10.79;100.00;154131.28;4993936;28;20460;-85
2023/04/24 00:46:29;;;;;;;1.70;1.17;;;;;;;10.80;100.00;154133.84;4996725;28;20464;-86
2023/04/24 00:48:57;;;;;;;1.40;1.07;;;;;;;10.77;100.00;154124.81;4991436;28;20878;-86
2023/04/24 00:51:25;;;;;;;1.67;0.87;;;;;;;10.78;100.00;154128.69;4990345;28;20975;-86
2023/04/24 00:53:51;;;;;;;2.00;1.13;;;;;;;10.78;100.00;154128.69;4992561;28;20457;-86
2023/04/24 00:56:20;;;;;;;7.37;3.37;;;;;;;10.80;100.00;154132.59;5007052;28;20504;-86
2023/04/24 00:58:46;;;;;;;3.17;1.20;;;;;;;10.80;100.00;154133.84;4977185;28;20508;-86
2023/04/24 01:01:13;;;;;;;2.13;0.97;;;;;;;10.83;100.00;154140.31;4997890;28;20488;-86
2023/04/24 01:03:40;;;;;;;1.57;1.00;;;;;;;10.84;100.00;154144.25;4991569;28;20821;-86
2023/04/24 01:06:08;;;;;;;1.40;0.90;;;;;;;10.86;100.00;154149.41;4989752;28;21115;-86
2023/04/24 01:08:35;;;;;;;1.77;1.27;;;;;;;10.84;100.00;154144.25;4991229;28;20455;-86
2023/04/24 01:11:05;;;;;;;1.30;1.00;;;;;;;10.90;100.00;154159.78;4989988;28;20490;-85
2023/04/24 01:13:34;;;;;;;1.57;1.00;;;;;;;10.89;100.00;154155.88;4992373;28;20455;-86
2023/04/24 01:16:01;;;;;;;1.20;0.83;;;;;;;10.88;100.00;154153.31;4972111;28;20460;-85
2023/04/24 01:18:28;;;;;;;2.30;1.10;;;;;;;10.88;100.00;154154.56;4990659;28;21017;-86
2023/04/24 01:20:56;;;;;;;1.17;1.00;;;;;;;10.88;100.00;154154.56;4974300;28;20506;-86
2023/04/24 01:23:25;;;;;;;3.93;1.37;;;;;;;10.89;100.00;154155.88;4990194;28;20540;-86
2023/04/24 01:25:52;;;;;;;1.50;1.20;;;;;;;10.90;100.00;154158.50;4983211;28;20550;-86
2023/04/24 01:28:19;;;;;;;1.57;1.27;;;;;;;10.88;100.00;154154.56;4990684;28;20526;-86
2023/04/24 01:30:46;;;;;;;2.20;1.40;;;;;;;10.90;100.00;154159.78;4983977;28;20529;-86
2023/04/24 01:33:15;;;;;;;1.90;1.07;;;;;;;10.89;100.00;154157.19;4989609;28;20447;-86
2023/04/24 01:35:42;;;;;;;2.63;1.30;;;;;;;10.89;100.00;154155.88;4986907;28;20471;-86
2023/04/24 01:38:08;;;;;;;2.10;1.10;;;;;;;10.89;100.00;154157.19;4988248;28;20482;-85
2023/04/24 01:40:37;;;;;;;1.47;1.10;;;;;;;10.89;100.00;154157.19;5005579;28;20543;-85
2023/04/24 01:43:04;;;;;;;1.37;1.20;;;;;;;10.85;100.00;154146.84;5005496;28;20467;-85
2023/04/24 01:45:30;;;;;;;1.40;1.00;;;;;;;10.84;100.00;154142.94;4987972;28;21002;-86
2023/04/24 01:47:57;;;;;;;1.60;1.20;;;;;;;10.81;100.00;154135.16;4974103;28;20482;-85
2023/04/24 01:50:24;;;;;;;1.33;0.77;;;;;;;10.80;100.00;154133.84;4990440;28;20510;-86
2023/04/24 01:52:51;;;;;;;3.10;0.90;;;;;;;10.76;100.00;154122.22;4993399;28;20438;-86
2023/04/24 01:55:18;;;;;;;3.03;1.23;;;;;;;10.78;100.00;154127.38;4988119;28;20515;-86
2023/04/24 01:57:47;;;;;;;1.13;0.70;;;;;;;10.79;100.00;154130.00;4990398;28;20982;-85
2023/04/24 02:00:14;;;;;;;1.60;1.00;;;;;;;10.76;100.00;154123.53;4989483;28;20455;-86
2023/04/24 02:02:41;;;;;;;2.20;1.00;;;;;;;10.73;100.00;154114.44;4987940;28;20471;-86
2023/04/24 02:05:09;;;;;;;1.47;0.90;;;;;;;10.73;100.00;154115.75;5006366;28;21147;-86
2023/04/24 02:07:39;;;;;;;1.70;1.13;;;;;;;10.70;100.00;154107.97;4990293;28;20978;-87
2023/04/24 02:10:07;;;;;;;2.50;1.10;;;;;;;10.69;100.00;154104.09;4990494;28;20479;-85
2023/04/24 02:12:33;;;;;;;1.27;1.10;;;;;;;10.66;100.00;154097.63;4989128;28;20847;-87
2023/04/24 02:15:02;;;;;;;1.50;1.17;;;;;;;10.67;100.00;154098.94;4995399;28;20473;-85
2023/04/24 02:17:29;;;;;;;1.50;1.17;;;;;;;10.65;100.00;154095.03;4989939;28;20446;-86
2023/04/24 02:19:57;;;;;;;1.60;1.00;;;;;;;10.65;100.00;154093.72;4989637;28;20462;-86
2023/04/24 02:22:24;;;;;;;1.33;0.90;;;;;;;10.65;100.00;154093.72;4985037;28;21006;-86
2023/04/24 02:24:50;;;;;;;1.30;0.80;;;;;;;10.69;100.00;154105.41;4989969;28;20535;-86
2023/04/24 02:27:17;;;;;;;2.10;1.00;;;;;;;10.68;100.00;154102.78;4991402;28;20550;-86
2023/04/24 02:29:43;;;;;;;1.67;1.00;;;;;;;10.66;100.00;154097.63;4988668;28;20444;-86
2023/04/24 02:32:12;;;;;;;1.67;0.93;;;;;;;10.66;100.00;154097.63;4971457;28;20567;-86
2023/04/24 02:34:38;;;;;;;1.23;1.03;;;;;;;10.61;100.00;154084.69;4987992;28;20449;-86
2023/04/24 02:37:05;;;;;;;2.83;1.33;;;;;;;10.57;100.00;154073.00;4976500;28;20458;-87
2023/04/24 02:39:31;;;;;;;4.90;1.00;;;;;;;10.55;100.00;154067.84;4978633;28;20522;-86
2023/04/24 02:41:58;;;;;;;1.47;0.83;;;;;;;10.56;100.00;154071.75;5006800;28;20510;-86
2023/04/24 02:44:25;;;;;;;1.50;1.10;;;;;;;10.55;100.00;154069.13;4991105;28;20491;-86
2023/04/24 02:46:52;;;;;;;1.87;1.07;;;;;;;10.52;100.00;154061.34;5017685;28;20463;-86
2023/04/24 02:49:20;;;;;;;2.20;1.00;;;;;;;10.54;100.00;154066.53;5001333;28;20464;-85
2023/04/24 02:51:47;;;;;;;3.10;1.23;;;;;;;10.53;100.00;154063.97;4972801;28;20984;-85
2023/04/24 02:54:13;;;;;;;1.60;0.93;;;;;;;10.55;100.00;154067.84;4999329;28;20459;-84
2023/04/24 02:56:40;;;;;;;1.97;0.97;;;;;;;10.57;100.00;154074.31;4990872;28;20591;-85
2023/04/24 02:59:08;;;;;;;1.40;0.80;;;;;;;10.59;100.00;154079.47;4999975;28;20541;-84
2023/04/24 03:01:35;;;;;;;1.47;0.97;;;;;;;10.59;100.00;154078.22;4973409;28;20473;-82
2023/04/24 03:04:01;;;;;;;1.40;1.20;;;;;;;10.59;100.00;154079.47;4989317;28;20440;-83
2023/04/24 03:06:31;;;;;;;1.67;0.90;;;;;;;10.55;100.00;154069.13;4972255;28;20468;-85
2023/04/24 03:08:57;;;;;;;1.20;0.83;;;;;;;10.55;100.00;154069.13;4990078;28;20825;-85
2023/04/24 03:11:26;;;;;;;1.40;1.17;;;;;;;10.51;100.00;154058.75;4997244;28;20571;-85
2023/04/24 03:13:52;;;;;;;1.77;1.30;;;;;;;10.48;100.00;154049.72;4989129;28;20491;-84
2023/04/24 03:16:19;;;;;;;1.43;0.90;;;;;;;10.50;100.00;154054.88;4988558;28;20498;-84
2023/04/24 03:18:47;;;;;;;1.30;0.87;;;;;;;10.49;100.00;154052.28;4988990;28;20468;-84
2023/04/24 03:21:14;;;;;;;1.20;0.80;;;;;;;10.46;100.00;154045.81;4972657;28;20460;-85
2023/04/24 03:23:42;;;;;;;1.87;1.00;;;;;;;10.42;100.00;154035.47;5003636;28;20453;-85
2023/04/24 03:26:10;;;;;;;1.70;1.30;;;;;;;10.40;100.00;154030.31;4995023;28;20476;-86
2023/04/24 03:28:41;;;;;;;2.03;1.10;;;;;;;10.39;100.00;154027.69;5020837;28;20462;-85
2023/04/24 03:31:08;;;;;;;3.00;1.17;;;;;;;10.37;100.00;154022.53;5003665;28;21057;-84
2023/04/24 03:33:36;;;;;;;2.10;1.10;;;;;;;10.34;100.00;154014.75;5007116;28;20497;-85
2023/04/24 03:36:03;;;;;;;1.37;1.00;;;;;;;10.35;100.00;154018.63;5003839;28;21136;-85
2023/04/24 03:38:39;;;;;;;1.30;1.00;;;;;;;10.29;100.00;154001.81;4979226;28;20503;-84
2023/04/24 03:41:22;;;;;;;2.27;0.93;;;;;;;10.27;100.00;153997.91;4989302;28;20458;-84
2023/04/24 03:44:02;;;;;;;1.20;0.70;;;;;;;10.25;100.00;153992.75;4987346;28;20461;-85
2023/04/24 03:46:28;;;;;;;1.47;1.07;;;;;;;10.25;100.00;153991.44;4988290;28;20463;-85
2023/04/24 03:48:58;;;;;;;1.40;0.90;;;;;;;10.25;100.00;153991.44;4972138;28;20802;-86
2023/04/24 03:51:30;;;;;;;1.47;1.00;;;;;;;10.20;100.00;153979.81;4987381;28;20499;-85
2023/04/24 03:54:03;;;;;;;1.60;1.00;;;;;;;10.19;100.00;153977.19;4970133;28;20458;-85
2023/04/24 03:56:33;;;;;;;2.30;1.43;;;;;;;10.15;100.00;153966.88;4988035;28;20897;-85
2023/04/24 03:59:00;;;;;;;1.37;0.90;;;;;;;10.15;100.00;153965.56;4987821;28;20893;-84
2023/04/24 04:01:28;;;;;;;1.40;0.77;;;;;;;10.13;100.00;153960.41;4986269;28;20491;-84
2023/04/24 04:04:01;;;;;;;1.10;0.70;;;;;;;10.05;100.00;153939.63;4988754;28;20617;-84
2023/04/24 04:06:30;;;;;;;1.70;1.27;;;;;;;10.02;100.00;153931.88;4987243;28;20566;-85
2023/04/24 04:08:59;;;;;;;1.40;0.90;;;;;;;9.99;100.00;153925.38;4977368;28;21097;-84
2023/04/24 04:11:26;;;;;;;3.93;1.03;;;;;;;9.97;100.00;153918.91;5001113;28;20487;-85
2023/04/24 04:13:55;;;;;;;1.23;1.00;;;;;;;9.99;100.00;153924.09;4988718;28;20833;-84
2023/04/24 04:16:22;;;;;;;1.67;1.00;;;;;;;10.01;100.00;153929.25;4992176;28;20465;-83
2023/04/24 04:18:51;;;;;;;1.30;0.93;;;;;;;10.01;100.00;153929.25;5007318;28;20565;-85
2023/04/24 04:21:18;;;;;;;2.87;1.13;;;;;;;10.01;100.00;153929.25;4989632;28;20469;-85
2023/04/24 04:23:45;;;;;;;1.20;0.80;;;;;;;10.03;100.00;153935.78;4975444;28;20451;-84
2023/04/24 04:26:19;;;;;;;1.00;0.90;;;;;;;10.01;100.00;153930.56;5009906;28;20526;-84
2023/04/24 04:29:08;;;;;;;1.60;1.00;;;;;;;10.02;100.00;153931.88;4999583;28;20475;-84
2023/04/24 04:31:38;;;;;;;2.43;0.77;;;;;;;10.03;100.00;153934.47;4992716;28;20556;-83
2023/04/24 04:34:11;;;;;;;1.10;0.73;;;;;;;10.05;100.00;153940.94;5010451;28;20472;-83
2023/04/24 04:36:39;;;;;;;1.70;1.10;;;;;;;10.06;100.00;153942.25;5001611;28;20470;-84
2023/04/24 04:39:30;;;;;;;4.43;1.50;;;;;;;10.06;100.00;153942.25;4990612;28;20477;-83
2023/04/24 04:42:00;;;;;;;1.60;1.43;;;;;;;10.00;100.00;153928.00;4988191;28;20537;-83
2023/04/24 04:44:36;;;;;;;2.00;1.50;;;;;;;9.96;100.00;153916.31;4997882;28;20443;-82
2023/04/24 04:47:05;;;;;;;1.57;1.00;;;;;;;9.94;100.00;153911.16;4986358;28;20836;-83
2023/04/24 04:49:34;;;;;;;1.73;1.10;;;;;;;9.91;100.00;153903.38;5007121;28;20448;-83
2023/04/24 04:52:01;;;;;;;1.80;1.27;;;;;;;9.87;100.00;153894.34;5003005;28;20505;-83
2023/04/24 04:54:28;;;;;;;1.90;1.43;;;;;;;9.84;100.00;153885.28;5011469;28;20445;-83
2023/04/24 04:56:57;;;;;;;2.80;1.60;;;;;;;9.75;100.00;153864.56;5007007;28;20473;-85
2023/04/24 04:59:24;;;;;;;2.23;1.70;;;;;;;9.74;100.00;153860.72;4984498;28;20463;-83
2023/04/24 05:01:58;;;;;;;2.30;1.90;;;;;;;9.72;100.00;153856.81;5010001;28;20463;-83
2023/04/24 05:04:25;;;;;;;2.13;1.53;;;;;;;9.70;100.00;153851.63;4985501;28;20454;-83
2023/04/24 05:06:52;;;;;;;1.90;1.70;;;;;;;9.67;100.00;153843.88;4990356;28;20814;-83
2023/04/24 05:09:19;;;;;;;2.50;1.70;;;;;;;9.62;100.00;153829.63;4986675;28;20455;-83
2023/04/24 05:11:58;;;;;;;4.63;1.90;;;;;;;9.60;100.00;153825.78;4990752;28;20593;-83
2023/04/24 05:14:26;;;;;;;1.77;1.23;;;;;;;9.64;100.00;153834.81;5005618;28;20459;-83
2023/04/24 05:16:52;;;;;;;2.00;1.57;;;;;;;9.61;100.00;153828.34;4979708;28;20563;-84
2023/04/24 05:19:22;;;;;;;1.77;1.57;;;;;;;9.59;100.00;153823.16;4967580;28;20742;-84
2023/04/24 05:21:49;;;;;;;2.17;1.63;;;;;;;9.53;100.00;153807.63;4984386;28;20466;-84
2023/04/24 05:24:15;;;;;;;1.97;1.77;;;;;;;9.54;100.00;153810.25;4977994;28;20541;-84
2023/04/24 05:26:48;;;;;;;2.63;1.77;;;;;;;9.52;100.00;153803.78;4989752;28;20450;-83
2023/04/24 05:29:19;;;;;;;2.63;1.80;;;;;;;9.52;100.00;153805.06;4995708;28;20536;-84
2023/04/24 05:31:45;;;;;;;3.47;1.90;;;;;;;9.54;100.00;153810.25;4987978;28;20552;-84
2023/04/24 05:34:12;;;;;;;2.40;1.63;;;;;;;9.55;100.00;153812.84;4973846;28;20474;-84
2023/04/24 05:36:44;;;;;;;2.93;1.87;;;;;;;9.52;100.00;153805.06;4983212;28;20450;-84
2023/04/24 05:39:10;;;;;;;2.57;1.73;;;;;;;9.56;100.00;153815.41;4983113;28;20803;-84
2023/04/24 05:41:37;;;;;;;1.93;1.70;;;;;;;9.55;100.00;153811.53;4990321;28;20464;-84
2023/04/24 05:44:03;;;;;;;2.13;1.80;;;;;;;9.59;100.00;153823.16;5001410;28;20493;-84
2023/04/24 05:46:30;;;;;;;2.30;2.07;;;;;;;9.62;100.00;153830.94;4985453;28;20505;-84
2023/04/24 05:48:57;;;;;;;2.70;1.97;;;;;;;9.62;100.00;153830.94;4991353;28;20458;-84
2023/04/24 05:51:24;;;;;;;2.67;2.47;;;;;;;9.63;100.00;153833.53;4969795;28;20848;-84
2023/04/24 05:53:52;;;;;;;3.33;2.37;;;;;;;9.64;100.00;153836.09;4989499;28;20555;-83
2023/04/24 05:56:19;;;;;;;2.43;2.13;;;;;;;9.66;100.00;153841.25;4983709;28;20496;-84
2023/04/24 05:58:46;;;;;;;3.17;2.50;;;;;;;9.68;100.00;153845.16;4999727;28;20537;-83
2023/04/24 06:01:14;;;;;;;3.03;1.87;;;;;;;9.71;100.00;153854.25;4985729;28;21039;-84
2023/04/24 06:03:41;;;;;;;2.53;2.27;;;;;;;9.68;100.00;153846.47;4978267;28;20540;-84
2023/04/24 06:06:08;;;;;;;2.33;1.90;;;;;;;9.70;100.00;153851.63;4969874;28;20454;-84
2023/04/24 06:08:36;;;;;;;2.90;2.57;;;;;;;9.72;100.00;153856.81;4983744;28;20887;-84
2023/04/24 06:11:04;;;;;;;3.03;2.40;;;;;;;9.70;100.00;153850.34;4968115;28;20985;-85
2023/04/24 06:13:31;;;;;;;2.43;2.20;;;;;;;9.70;100.00;153851.63;5019043;28;20448;-85
2023/04/24 06:16:16;;;;;;;3.10;2.27;;;;;;;9.85;100.00;153887.88;4989750;28;20462;-84
2023/04/24 06:18:50;;;;;;;3.73;2.40;;;;;;;9.88;100.00;153896.91;4985753;28;20452;-85
2023/04/24 06:21:17;;;;;;;3.40;2.30;;;;;;;10.01;100.00;153930.56;4970521;28;20572;-85
2023/04/24 06:23:46;;;;;;;3.30;2.40;;;;;;;10.25;100.00;153991.44;4987848;28;20796;-84
2023/04/24 06:26:14;;;;;;;4.80;2.57;;;;;;;10.59;100.00;154079.47;4973793;28;20455;-83
2023/04/24 06:28:41;;;;;;;3.70;2.60;;;;;;;10.96;100.00;154174.06;5011485;28;21016;-83
2023/04/24 06:31:07;;;;;;;4.93;2.57;;;;;;;11.39;100.00;154284.13;4986994;28;20487;-84
2023/04/24 06:33:34;;;;;;;3.33;2.97;;;;;;;11.80;100.00;154390.44;4988853;28;20456;-85
2023/04/24 06:36:01;;;;;;;2.80;2.50;;;;;;;12.15;100.00;154481.16;4997971;28;20487;-85
2023/04/24 06:38:29;;;;;;;3.20;2.10;;;;;;;12.57;100.00;154587.50;4982456;28;20462;-85
2023/04/24 06:40:56;;;;;;;2.40;2.20;;;;;;;12.78;100.00;154641.97;4972458;28;20507;-85
2023/04/24 06:43:24;;;;;;;6.03;3.00;;;;;;;13.01;98.91;154700.31;4966988;28;20464;-85
2023/04/24 06:45:50;;;;;;;3.10;1.90;;;;;;;13.25;97.60;154762.66;4980918;28;20562;-85
2023/04/24 06:48:17;;;;;;;3.37;1.90;;;;;;;13.45;96.17;154813.28;4987828;28;20465;-86
2023/04/24 06:50:43;;;;;;;2.70;1.93;;;;;;;13.66;94.10;154867.78;4985982;28;20832;-85
2023/04/24 06:53:12;;;;;;;2.30;2.03;;;;;;;13.82;92.48;154909.34;4987129;28;20543;-84
2023/04/24 06:55:39;;;;;;;2.40;2.20;;;;;;;13.95;92.92;154943.09;4984238;28;20496;-85
2023/04/24 06:58:05;;;;;;;3.70;2.40;;;;;;;13.99;90.59;154953.44;4985003;28;20975;-85
2023/04/24 07:00:33;;;;;;;5.30;2.07;;;;;;;13.82;88.72;154909.34;4985290;28;20563;-85
2023/04/24 07:03:00;;;;;;;2.10;1.80;;;;;;;13.73;88.84;154887.25;4983986;28;20450;-86
2023/04/24 07:05:28;;;;;;;3.10;2.50;;;;;;;13.58;89.31;154847.03;4970078;28;20457;-85
2023/04/24 07:10:59;;;;;;;2.40;2.03;;;;;;;13.53;90.26;154834.06;4935194;29;20502;-76
2023/04/24 07:13:26;;;;;;;2.60;2.13;;;;;;;13.49;93.56;154823.66;4947174;29;20455;-76
2023/04/24 07:15:54;;;;;;;2.87;2.63;;;;;;;13.48;93.77;154821.03;4946945;29;20471;-76
2023/04/24 07:18:21;;;;;;;3.27;2.60;;;;;;;13.52;93.92;154831.44;4944978;29;20458;-76
2023/04/24 07:20:49;;;;;;;2.60;2.20;;;;;;;13.45;88.11;154813.28;4928483;29;20977;-76
2023/04/24 07:23:16;;;;;;;3.10;2.17;;;;;;;13.31;89.81;154779.56;4945160;29;20470;-77
2023/04/24 07:25:43;;;;;;;2.50;2.30;;;;;;;13.09;88.86;154721.13;4928717;29;20469;-77
2023/04/24 07:28:09;;;;;;;3.33;2.13;;;;;;;12.88;90.72;154666.59;4928717;29;20489;-77
2023/04/24 07:30:36;;;;;;;2.83;2.37;;;;;;;12.68;94.68;154616.03;4945516;29;20473;-78
2023/04/24 07:33:04;;;;;;;2.50;1.83;;;;;;;12.48;95.72;154565.44;4945684;29;20490;-78
2023/04/24 07:35:30;;;;;;;2.93;2.60;;;;;;;12.42;98.30;154548.56;4929012;29;20462;-77
2023/04/24 07:37:57;;;;;;;2.37;2.17;;;;;;;12.29;97.59;154516.16;4945839;29;20988;-77
2023/04/24 07:40:23;;;;;;;2.30;1.90;;;;;;;12.34;99.51;154527.88;4928694;29;20841;-76
2023/04/24 07:42:50;;;;;;;2.10;1.63;;;;;;;12.40;96.38;154543.41;4928176;29;20836;-76
2023/04/24 07:45:17;;;;;;;2.30;1.70;;;;;;;12.70;93.89;154621.22;4946471;29;20460;-78
2023/04/24 07:47:45;;;;;;;2.17;1.80;;;;;;;13.18;94.12;154745.81;4912705;29;20465;-76
2023/04/24 07:50:13;;;;;;;2.43;1.93;;;;;;;13.66;90.61;154867.78;4944434;28;20920;-76
2023/04/24 07:52:40;;;;;;;2.30;1.77;;;;;;;13.84;85.15;154914.50;4950413;29;20486;-77
2023/04/24 07:55:07;;;;;;;2.30;1.90;;;;;;;13.87;86.09;154923.56;4931716;29;20554;-77
2023/04/24 07:57:33;;;;;;;2.10;1.60;;;;;;;13.74;83.29;154888.56;4950333;28;20466;-77
2023/04/24 08:00:00;;;;;;;2.43;2.07;;;;;;;13.60;83.55;154852.22;4910696;29;20974;-76
2023/04/24 08:02:26;;;;;;;3.20;1.93;;;;;;;13.35;77.63;154789.91;4950225;29;20899;-76
2023/04/24 08:04:54;;;;;;;2.13;1.70;;;;;;;13.30;83.38;154776.94;4950718;29;20981;-77
2023/04/24 08:07:57;;;;;;;2.30;1.80;;;;;;;13.17;82.29;154743.22;4951145;29;20521;-76
2023/04/24 08:10:24;;;;;;;2.00;1.60;;;;;;;13.14;81.67;154734.09;4945332;29;20521;-77
2023/04/24 08:12:51;;;;;;;2.07;1.63;;;;;;;13.03;82.31;154706.81;4948292;29;20490;-76
2023/04/24 08:15:18;;;;;;;2.30;1.70;;;;;;;12.90;77.29;154673.09;4949577;29;20488;-77
2023/04/24 08:17:45;;;;;;;1.90;1.50;;;;;;;12.73;77.65;154630.28;4932248;29;20460;-77
2023/04/24 08:20:13;;;;;;;2.03;1.80;;;;;;;12.67;80.79;154613.44;4947535;29;20463;-77
2023/04/24 08:22:40;;;;;;;1.97;1.50;;;;;;;12.64;81.97;154605.66;4931981;29;21003;-78
2023/04/24 08:25:09;;;;;;;1.93;1.57;;;;;;;12.67;80.45;154614.75;4947414;29;20465;-78
2023/04/24 08:27:36;;;;;;;2.30;1.73;;;;;;;12.78;80.13;154643.28;4929249;29;20448;-78
2023/04/24 08:30:03;;;;;;;3.97;1.80;;;;;;;12.91;84.24;154675.69;4932440;29;20458;-78
2023/04/24 08:32:30;;;;;;;1.80;1.60;;;;;;;13.15;88.60;154738.03;4930068;29;20470;-78
2023/04/24 08:34:57;;;;;;;1.80;1.60;;;;;;;13.35;82.60;154788.59;4941310;29;20462;-76
2023/04/24 08:37:23;;;;;;;2.10;1.90;;;;;;;13.57;81.00;154844.41;4930963;29;20961;-76
2023/04/24 08:39:50;;;;;;;2.63;1.83;;;;;;;13.68;77.65;154872.97;4949531;29;20454;-76
2023/04/24 08:42:19;;;;;;;2.27;1.70;;;;;;;13.73;73.91;154885.94;4930865;28;20462;-77
2023/04/24 08:44:45;;;;;;;2.20;2.00;;;;;;;13.77;80.05;154896.31;4944486;28;20530;-77
2023/04/24 08:47:12;;;;;;;1.80;1.30;;;;;;;13.74;74.75;154888.56;4949619;28;20462;-77
2023/04/24 08:49:39;;;;;;;1.87;1.60;;;;;;;13.78;76.38;154900.22;4948070;28;20444;-76
2023/04/24 08:52:06;;;;;;;1.90;1.60;;;;;;;13.64;75.49;154863.88;4949050;29;20491;-77
2023/04/24 08:54:35;;;;;;;2.30;2.00;;;;;;;13.58;75.90;154848.28;4929857;29;20459;-76
2023/04/24 08:57:03;;;;;;;2.93;2.07;;;;;;;13.69;78.01;154875.53;4945481;28;21073;-77
2023/04/24 08:59:32;;;;;;;2.27;2.03;;;;;;;13.89;75.70;154928.81;4925414;29;20482;-76
2023/04/24 09:01:59;;;;;;;2.00;1.80;;;;;;;13.99;75.02;154953.44;4931334;29;21018;-77
2023/04/24 09:04:26;;;;;;;2.10;1.63;;;;;;;14.12;75.35;154987.19;4945169;28;20569;-77
2023/04/24 09:06:53;;;;;;;2.00;1.73;;;;;;;14.25;70.50;155019.66;4925285;29;20459;-77
2023/04/24 09:09:19;;;;;;;3.00;1.73;;;;;;;14.35;75.65;155046.97;4948075;29;20941;-76
2023/04/24 09:11:46;;;;;;;2.37;1.97;;;;;;;14.35;72.92;155046.97;4948172;29;20574;-77
2023/04/24 09:14:14;;;;;;;2.27;1.87;;;;;;;14.30;72.76;155033.94;4947679;29;20463;-77
2023/04/24 09:16:42;;;;;;;2.30;1.80;;;;;;;14.27;73.38;155024.88;4931615;29;20455;-77
2023/04/24 09:19:08;;;;;;;3.40;2.23;;;;;;;14.22;73.11;155013.16;4947011;29;20874;-76
2023/04/24 09:21:36;;;;;;;2.67;1.70;;;;;;;14.03;72.02;154965.13;4930240;29;20478;-76
2023/04/24 09:24:04;;;;;;;2.40;1.53;;;;;;;13.93;71.33;154937.84;4947447;29;20463;-76
2023/04/24 09:26:32;;;;;;;2.97;2.00;;;;;;;13.81;75.71;154908.03;4948587;29;20467;-76
2023/04/24 09:28:59;;;;;;;2.13;1.67;;;;;;;13.66;70.11;154867.78;4948442;29;20507;-77
2023/04/24 09:31:28;;;;;;;2.93;2.27;;;;;;;13.57;72.84;154845.72;4946145;29;20871;-76
2023/04/24 09:33:57;;;;;;;2.30;2.03;;;;;;;13.50;70.34;154826.25;4948715;29;20907;-77
2023/04/24 09:36:32;;;;;;;1.80;1.50;;;;;;;13.35;68.98;154788.59;4946900;29;21046;-77
2023/04/24 09:39:00;;;;;;;2.27;1.80;;;;;;;13.47;69.79;154819.78;4947251;29;20898;-77
2023/04/24 09:41:27;;;;;;;2.13;1.50;;;;;;;13.59;70.48;154849.59;4928776;29;20565;-77
2023/04/24 09:43:54;;;;;;;5.07;2.10;;;;;;;13.71;73.94;154880.78;4924285;29;20550;-77
2023/04/24 09:46:22;;;;;;;2.40;1.93;;;;;;;13.78;72.42;154898.91;4939235;29;20459;-76
2023/04/24 09:48:48;;;;;;;3.13;2.17;;;;;;;13.92;72.74;154936.59;4929692;29;20458;-77
2023/04/24 09:51:16;;;;;;;2.17;1.97;;;;;;;14.03;74.20;154965.13;4922504;29;20880;-77
2023/04/24 09:53:46;;;;;;;2.27;1.60;;;;;;;14.04;67.82;154966.41;4945479;29;20480;-77
2023/04/24 09:56:16;;;;;;;2.10;1.60;;;;;;;13.99;65.03;154953.44;4929858;29;20489;-77
2023/04/24 09:58:43;;;;;;;2.77;1.70;;;;;;;13.91;66.68;154932.66;4944213;28;20579;-77
2023/04/24 10:01:12;;;;;;;3.40;1.37;;;;;;;13.83;67.56;154911.91;4946819;28;20462;-77
2023/04/24 10:03:42;;;;;;;1.97;1.40;;;;;;;13.69;71.45;154876.84;4931363;29;20455;-77
2023/04/24 10:06:13;;;;;;;5.00;1.40;;;;;;;13.53;67.77;154834.06;4938920;29;21908;-78
2023/04/24 10:08:42;;;;;;;1.50;1.40;;;;;;;13.35;69.52;154789.91;4943453;28;20930;-77
2023/04/24 10:11:10;;;;;;;2.33;1.30;;;;;;;13.27;72.95;154769.13;4947986;29;20957;-78
2023/04/24 10:13:37;;;;;;;2.37;1.40;;;;;;;13.15;67.48;154736.72;4929899;29;20479;-78
2023/04/24 10:16:04;;;;;;;3.93;1.40;;;;;;;13.18;70.22;154744.50;4946523;28;20463;-78
2023/04/24 10:18:32;;;;;;;1.53;1.43;;;;;;;13.20;66.82;154751.00;4947083;29;20463;-78
2023/04/24 10:21:01;;;;;;;1.70;1.40;;;;;;;13.35;71.80;154789.91;4946228;29;20481;-77
2023/04/24 10:23:28;;;;;;;2.57;1.80;;;;;;;13.42;67.85;154808.06;4947875;29;20458;-78
2023/04/24 10:25:56;;;;;;;2.20;1.37;;;;;;;13.42;66.88;154806.81;4945780;29;20475;-78
2023/04/24 10:28:23;;;;;;;1.70;1.47;;;;;;;13.47;65.50;154819.78;4946108;29;20479;-78
2023/04/24 10:30:50;;;;;;;2.30;1.47;;;;;;;13.58;69.92;154847.03;4947235;29;20464;-77
2023/04/24 10:33:17;;;;;;;1.50;1.23;;;;;;;13.56;65.18;154843.09;4946811;29;20881;-78
2023/04/24 10:35:48;;;;;;;2.60;1.50;;;;;;;13.62;65.87;154857.38;4925322;29;20475;-76
2023/04/24 10:38:18;;;;;;;2.20;1.57;;;;;;;13.64;66.51;154862.56;4924273;29;20459;-77
2023/04/24 10:40:44;;;;;;;2.20;1.20;;;;;;;13.71;63.86;154880.78;4946695;29;20462;-76
2023/04/24 10:43:18;;;;;;;1.93;1.33;;;;;;;13.82;63.45;154909.34;4922386;29;20447;-76
2023/04/24 10:46:01;;;;;;;3.20;1.53;;;;;;;13.76;63.75;154893.75;4937362;29;20471;-76
2023/04/24 10:48:28;;;;;;;1.77;1.60;;;;;;;13.67;61.10;154870.34;4924672;29;20465;-76
2023/04/24 10:50:55;;;;;;;2.00;1.40;;;;;;;13.64;67.19;154863.88;4947148;29;20514;-76
2023/04/24 10:53:23;;;;;;;2.00;1.27;;;;;;;13.48;63.75;154821.03;4928569;29;20478;-77
2023/04/24 10:55:51;;;;;;;7.37;1.60;;;;;;;13.41;64.56;154805.50;4929730;29;21276;-77
2023/04/24 10:58:23;;;;;;;1.80;1.40;;;;;;;13.30;64.59;154775.63;4945831;29;20474;-77
2023/04/24 11:00:58;;;;;;;1.63;1.50;;;;;;;13.21;71.13;154752.31;4923345;29;20471;-77
2023/04/24 11:03:27;;;;;;;2.30;1.70;;;;;;;13.16;71.95;154739.28;4923754;29;21048;-77
2023/04/24 11:05:56;;;;;;;3.73;1.20;;;;;;;13.01;69.14;154701.63;4929280;29;20459;-77
2023/04/24 11:08:28;;;;;;;1.60;1.33;;;;;;;12.95;70.27;154686.06;4924081;29;20514;-77
2023/04/24 11:11:03;;;;;;;1.60;1.30;;;;;;;12.92;70.23;154678.25;4928095;29;20592;-77
2023/04/24 11:14:08;;;;;;;2.37;1.10;;;;;;;12.83;67.37;154654.94;4947577;29;20486;-77
2023/04/24 11:16:37;;;;;;;1.80;1.30;;;;;;;12.79;70.14;154644.53;4923128;29;20462;-77
2023/04/24 11:19:07;;;;;;;1.70;1.20;;;;;;;12.75;71.33;154634.19;4923574;29;20590;-78
2023/04/24 11:21:41;;;;;;;1.47;1.33;;;;;;;12.63;71.12;154603.03;4903349;29;20463;-78
2023/04/24 11:24:25;;;;;;;2.03;1.20;;;;;;;12.57;73.43;154587.50;4912399;29;20811;-78
2023/04/24 11:26:52;;;;;;;1.90;1.60;;;;;;;12.54;73.10;154579.72;4946050;29;20950;-78
2023/04/24 11:29:20;;;;;;;1.40;1.30;;;;;;;12.46;68.76;154558.97;4927153;29;20461;-78
2023/04/24 11:31:49;;;;;;;2.50;1.53;;;;;;;12.47;72.52;154561.59;4947233;29;20465;-78